createdAt,value
2023-04-27T00:02:27.773Z,43.20
2023-04-27T00:04:57.200Z,43.30
2023-04-27T00:07:26.504Z,43.30
2023-04-27T00:09:54.739Z,43.40
2023-04-27T00:12:23.087Z,43.30
2023-04-27T00:14:51.791Z,43.40
2023-04-27T00:17:20.394Z,43.40
2023-04-27T00:19:49.985Z,43.70
2023-04-27T00:22:18.248Z,43.80
2023-04-27T00:24:46.555Z,44.00
2023-04-27T00:27:14.964Z,44.10
2023-04-27T00:29:43.695Z,44.20
2023-04-27T00:32:12.612Z,44.30
2023-04-27T00:34:40.904Z,44.40
2023-04-27T00:37:10.874Z,44.60
2023-04-27T00:39:39.400Z,44.70
2023-04-27T00:42:11.322Z,44.70
2023-04-27T00:44:40.015Z,44.80
2023-04-27T00:47:08.962Z,44.90
2023-04-27T00:49:37.238Z,44.90
2023-04-27T00:52:05.879Z,45.00
2023-04-27T00:54:35.741Z,45.00
2023-04-27T00:57:05.167Z,45.10
2023-04-27T00:59:33.515Z,45.30
2023-04-27T01:02:02.686Z,45.60
2023-04-27T01:04:32.306Z,45.80
2023-04-27T01:07:02.533Z,46.20
2023-04-27T01:09:31.024Z,46.40
2023-04-27T01:12:01.587Z,46.40
2023-04-27T01:14:29.918Z,46.10
2023-04-27T01:16:58.221Z,46.10
2023-04-27T01:19:26.716Z,46.10
2023-04-27T01:21:54.948Z,46.20
2023-04-27T01:24:24.529Z,46.40
2023-04-27T01:26:53.890Z,46.40
2023-04-27T01:29:22.524Z,46.40
2023-04-27T01:31:50.884Z,46.20
2023-04-27T01:34:19.289Z,46.20
2023-04-27T01:36:47.498Z,46.10
2023-04-27T01:39:16.327Z,46.20
2023-04-27T01:41:45.934Z,46.10
2023-04-27T01:44:14.225Z,46.10
2023-04-27T01:46:42.671Z,46.10
2023-04-27T01:49:11.171Z,46.20
2023-04-27T01:51:39.468Z,46.30
2023-04-27T01:54:07.690Z,46.40
2023-04-27T01:56:36.060Z,47.40
2023-04-27T01:59:05.967Z,47.40
2023-04-27T02:01:34.523Z,47.50
2023-04-27T02:04:02.893Z,47.70
2023-04-27T02:06:31.399Z,47.80
2023-04-27T02:08:59.774Z,48.10
2023-04-27T02:11:28.142Z,48.30
2023-04-27T02:13:56.382Z,48.30
2023-04-27T02:16:26.049Z,48.30
2023-04-27T02:18:54.507Z,48.40
2023-04-27T02:21:22.790Z,48.50
2023-04-27T02:23:51.049Z,48.60
2023-04-27T02:26:20.460Z,48.80
2023-04-27T02:28:50.059Z,48.80
2023-04-27T02:31:18.713Z,49.00
2023-04-27T02:33:48.239Z,49.00
2023-04-27T02:36:16.493Z,49.00
2023-04-27T02:38:44.680Z,48.90
2023-04-27T02:41:12.850Z,48.80
2023-04-27T02:43:40.970Z,48.90
2023-04-27T02:46:09.421Z,49.00
2023-04-27T02:48:37.676Z,49.00
2023-04-27T02:51:07.602Z,49.10
2023-04-27T02:53:36.305Z,48.90
2023-04-27T02:56:05.100Z,49.00
2023-04-27T02:58:33.316Z,49.10
2023-04-27T03:01:02.640Z,49.10
2023-04-27T03:03:31.282Z,49.20
2023-04-27T03:05:59.600Z,49.40
2023-04-27T03:08:29.222Z,49.50
2023-04-27T03:10:57.458Z,49.60
2023-04-27T03:13:25.884Z,49.70
2023-04-27T03:15:54.213Z,49.80
2023-04-27T03:18:22.732Z,49.90
2023-04-27T03:20:50.987Z,50.00
2023-04-27T03:23:22.093Z,50.00
2023-04-27T03:25:51.802Z,50.20
2023-04-27T03:28:20.320Z,50.30
2023-04-27T03:30:48.953Z,50.30
2023-04-27T03:33:18.342Z,50.30
2023-04-27T03:35:55.376Z,50.50
2023-04-27T03:38:24.005Z,50.40
2023-04-27T03:40:54.046Z,50.50
2023-04-27T03:43:22.688Z,50.70
2023-04-27T03:45:51.042Z,50.70
2023-04-27T03:48:20.027Z,50.70
2023-04-27T03:50:48.546Z,50.80
2023-04-27T03:53:16.987Z,50.90
2023-04-27T03:55:48.361Z,51.00
2023-04-27T03:58:18.341Z,51.20
2023-04-27T04:00:46.789Z,51.30
2023-04-27T04:03:15.282Z,51.40
2023-04-27T04:05:43.783Z,51.60
2023-04-27T04:08:12.334Z,51.80
2023-04-27T04:10:40.596Z,51.80
2023-04-27T04:13:08.948Z,52.10
2023-04-27T04:15:38.851Z,52.30
2023-04-27T04:18:07.270Z,52.50
2023-04-27T04:20:36.256Z,52.60
2023-04-27T04:23:04.467Z,52.80
2023-04-27T04:25:33.122Z,53.10
2023-04-27T04:28:01.332Z,53.20
2023-04-27T04:30:29.745Z,53.20
2023-04-27T04:32:59.725Z,53.40
2023-04-27T04:35:27.933Z,53.40
2023-04-27T04:37:56.138Z,54.30
2023-04-27T04:40:24.602Z,53.70
2023-04-27T04:42:52.949Z,53.80
2023-04-27T04:45:21.617Z,54.00
2023-04-27T04:47:50.556Z,54.10
2023-04-27T04:50:20.537Z,54.20
2023-04-27T04:52:48.812Z,54.30
2023-04-27T04:55:17.313Z,54.40
2023-04-27T04:57:45.971Z,54.60
2023-04-27T05:00:15.445Z,54.70
2023-04-27T05:02:44.158Z,54.80
2023-04-27T05:05:12.515Z,54.90
2023-04-27T05:07:42.225Z,55.10
2023-04-27T05:10:10.669Z,55.10
2023-04-27T05:12:38.832Z,55.20
2023-04-27T05:15:08.140Z,55.30
2023-04-27T05:17:36.559Z,55.50
2023-04-27T05:20:05.384Z,55.70
2023-04-27T05:22:33.690Z,55.70
2023-04-27T05:25:03.874Z,55.80
2023-04-27T05:27:32.133Z,56.00
2023-04-27T05:30:00.667Z,56.10
2023-04-27T05:32:28.995Z,56.10
2023-04-27T05:34:57.416Z,56.20
2023-04-27T05:37:28.580Z,56.50
2023-04-27T05:40:01.645Z,55.80
2023-04-27T05:42:44.332Z,55.50
2023-04-27T05:45:38.005Z,55.20
2023-04-27T05:48:09.061Z,54.90
2023-04-27T05:50:40.031Z,54.60
2023-04-27T05:53:24.033Z,54.30
2023-04-27T05:56:25.547Z,54.10
2023-04-27T05:59:35.936Z,54.50
2023-04-27T06:02:32.984Z,53.90
2023-04-27T06:05:09.325Z,53.70
2023-04-27T06:08:30.641Z,53.50
2023-04-27T06:11:38.420Z,53.40
2023-04-27T06:14:08.959Z,53.10
2023-04-27T06:29:44.094Z,52.30
2023-04-27T06:32:27.412Z,52.00
2023-04-27T06:34:56.547Z,52.00
2023-04-27T06:37:30.162Z,51.80
2023-04-27T06:39:59.074Z,51.70
2023-04-27T06:42:27.859Z,51.40
2023-04-27T06:44:59.115Z,51.40
2023-04-27T06:47:27.605Z,51.20
2023-04-27T06:49:58.130Z,51.10
2023-04-27T06:52:35.480Z,50.90
2023-04-27T06:55:04.115Z,50.90
2023-04-27T06:57:33.838Z,50.00
2023-04-27T07:00:11.004Z,49.70
2023-04-27T07:02:41.207Z,49.70
2023-04-27T07:05:10.009Z,49.50
2023-04-27T07:07:38.199Z,49.50
2023-04-27T07:10:07.727Z,49.30
2023-04-27T07:13:14.378Z,49.30
2023-04-27T07:16:01.609Z,49.10
2023-04-27T07:18:31.241Z,48.90
2023-04-27T07:20:59.469Z,48.80
2023-04-27T07:23:27.679Z,48.60
2023-04-27T07:25:56.650Z,48.40
2023-04-27T07:28:24.959Z,48.20
2023-04-27T07:30:55.316Z,47.90
2023-04-27T07:33:28.098Z,47.80
2023-04-27T07:36:05.056Z,47.60
2023-04-27T07:38:59.981Z,47.50
2023-04-27T07:41:39.960Z,47.40
2023-04-27T07:44:10.337Z,47.20
2023-04-27T07:46:40.616Z,47.20
2023-04-27T07:49:14.029Z,47.20
2023-04-27T07:51:44.445Z,47.00
2023-04-27T07:54:13.093Z,47.40
2023-04-27T07:56:43.048Z,46.50
2023-04-27T07:59:11.967Z,46.50
2023-04-27T08:01:41.976Z,46.10
2023-04-27T08:04:10.635Z,45.80
2023-04-27T08:06:39.839Z,45.40
2023-04-27T08:09:09.793Z,45.30
2023-04-27T08:11:38.178Z,44.90
2023-04-27T08:14:08.927Z,44.90
2023-04-27T08:16:37.756Z,44.90
2023-04-27T08:19:07.410Z,44.70
2023-04-27T08:21:39.567Z,44.50
2023-04-27T08:24:08.153Z,44.40
2023-04-27T08:26:38.902Z,44.40
2023-04-27T08:29:19.302Z,44.00
2023-04-27T08:31:57.548Z,43.80
2023-04-27T08:34:31.182Z,43.70
2023-04-27T08:37:02.618Z,43.60
2023-04-27T08:39:37.724Z,43.50
2023-04-27T08:42:18.746Z,43.40
2023-04-27T08:45:05.644Z,42.90
2023-04-27T08:47:42.640Z,42.20
2023-04-27T08:50:13.954Z,42.10
2023-04-27T08:52:45.452Z,41.70
2023-04-27T08:55:16.493Z,41.60
2023-04-27T08:57:59.368Z,41.70
2023-04-27T09:00:32.735Z,41.60
2023-04-27T09:03:04.075Z,41.50
2023-04-27T09:05:34.328Z,41.40
2023-04-27T09:08:05.503Z,41.40
2023-04-27T09:10:45.600Z,41.20
2023-04-27T09:13:14.318Z,40.90
2023-04-27T09:15:46.296Z,40.80
2023-04-27T09:18:20.429Z,40.50
2023-04-27T09:20:51.696Z,40.60
2023-04-27T09:23:29.580Z,40.50
2023-04-27T09:25:59.152Z,40.40
2023-04-27T09:28:28.653Z,40.50
2023-04-27T09:30:58.332Z,40.20
2023-04-27T09:33:27.815Z,40.10
2023-04-27T09:36:03.235Z,40.10
2023-04-27T09:38:32.738Z,40.10
2023-04-27T09:41:01.687Z,40.10
2023-04-27T09:43:31.389Z,39.90
2023-04-27T09:46:05.984Z,39.70
2023-04-27T09:48:40.050Z,39.80
2023-04-27T09:51:09.894Z,39.90
2023-04-27T09:53:56.914Z,39.60
2023-04-27T09:56:37.841Z,39.50
2023-04-27T09:59:42.258Z,39.20
2023-04-27T10:02:35.113Z,38.90
2023-04-27T10:05:31.494Z,39.10
2023-04-27T10:08:01.855Z,38.90
2023-04-27T10:10:31.263Z,39.10
2023-04-27T10:13:02.812Z,39.20
2023-04-27T10:15:32.178Z,38.80
2023-04-27T10:18:06.095Z,38.50
2023-04-27T10:20:37.253Z,38.50
2023-04-27T10:23:08.348Z,38.70
2023-04-27T10:25:40.293Z,38.50
2023-04-27T10:28:10.745Z,38.50
2023-04-27T10:30:41.347Z,38.40
2023-04-27T10:33:12.982Z,38.60
2023-04-27T10:36:11.894Z,38.40
2023-04-27T10:39:07.594Z,38.40
2023-04-27T10:41:40.441Z,38.10
2023-04-27T10:44:37.275Z,38.30
2023-04-27T10:47:20.303Z,37.80
2023-04-27T10:50:02.292Z,37.90
2023-04-27T10:52:31.777Z,38.00
2023-04-27T10:55:13.817Z,38.10
2023-04-27T10:57:54.359Z,37.90
2023-04-27T11:00:33.391Z,38.00
2023-04-27T11:03:21.093Z,37.70
2023-04-27T11:09:04.745Z,37.40
2023-04-27T11:11:37.342Z,37.40
2023-04-27T11:14:07.269Z,37.20
2023-04-27T11:16:36.384Z,37.20
2023-04-27T11:19:07.780Z,37.30
2023-04-27T11:21:39.807Z,37.20
2023-04-27T11:24:14.632Z,37.20
2023-04-27T11:27:00.191Z,37.20
2023-04-27T11:29:39.028Z,37.00
2023-04-27T11:32:07.508Z,36.60
2023-04-27T11:34:39.010Z,36.80
2023-04-27T11:39:41.554Z,36.40
2023-04-27T11:42:19.167Z,36.20
2023-04-27T11:44:54.545Z,36.10
2023-04-27T11:47:23.498Z,36.20
2023-04-27T11:49:53.194Z,36.20
2023-04-27T11:52:21.959Z,36.20
2023-04-27T11:54:56.273Z,36.40
2023-04-27T11:57:28.182Z,36.40
2023-04-27T11:59:57.577Z,36.30
2023-04-27T12:02:25.951Z,36.20
2023-04-27T12:04:54.760Z,36.20
2023-04-27T12:07:23.277Z,36.10
2023-04-27T12:09:52.248Z,35.90
2023-04-27T12:12:22.368Z,35.70
2023-04-27T12:14:52.459Z,35.40
2023-04-27T12:17:21.221Z,35.60
2023-04-27T12:19:49.789Z,35.60
2023-04-27T12:22:17.971Z,35.50
2023-04-27T12:24:46.231Z,35.50
2023-04-27T12:27:14.425Z,35.20
2023-04-27T12:29:42.875Z,35.00
2023-04-27T12:32:12.495Z,35.10
2023-04-27T12:34:40.999Z,35.20
2023-04-27T12:37:20.995Z,35.20
2023-04-27T12:39:52.703Z,35.20
2023-04-27T12:42:24.672Z,35.00
2023-04-27T12:44:55.217Z,34.80
2023-04-27T12:47:45.880Z,34.70
2023-04-27T12:50:13.757Z,34.60
2023-04-27T12:52:42.160Z,34.70
2023-04-27T12:55:24.715Z,35.00
2023-04-27T12:57:59.427Z,35.00
2023-04-27T13:00:27.786Z,35.00
2023-04-27T13:02:58.382Z,34.80
2023-04-27T13:05:27.575Z,34.60
2023-04-27T13:07:56.945Z,34.60
2023-04-27T13:10:25.440Z,34.50
2023-04-27T13:12:53.757Z,34.40
2023-04-27T13:15:22.104Z,34.00
2023-04-27T13:17:52.962Z,33.70
2023-04-27T13:20:22.835Z,33.70
2023-04-27T13:22:51.114Z,33.80
2023-04-27T13:25:20.019Z,33.70
2023-04-27T13:27:48.275Z,33.60
2023-04-27T13:30:16.669Z,33.40
2023-04-27T13:32:44.926Z,32.80
2023-04-27T13:35:13.200Z,32.50
2023-04-27T13:37:43.064Z,32.20
2023-04-27T13:40:12.503Z,31.80
2023-04-27T13:42:41.136Z,31.60
2023-04-27T13:45:10.578Z,31.10
2023-04-27T13:47:38.920Z,30.60
2023-04-27T13:50:08.761Z,30.50
2023-04-27T13:52:38.003Z,30.00
2023-04-27T13:55:09.560Z,29.70
2023-04-27T13:57:38.808Z,29.40
2023-04-27T14:00:11.163Z,29.40
2023-04-27T14:02:39.962Z,29.50
2023-04-27T14:05:09.139Z,29.60
2023-04-27T14:07:37.352Z,29.30
2023-04-27T14:10:08.386Z,28.80
2023-04-27T14:12:39.323Z,28.40
2023-04-27T14:15:08.342Z,28.20
2023-04-27T14:17:36.642Z,28.50
2023-04-27T14:22:36.228Z,27.80
2023-04-27T14:25:04.601Z,27.70
2023-04-27T14:27:34.197Z,27.60
2023-04-27T14:30:02.858Z,27.50
2023-04-27T14:32:31.099Z,27.40
2023-04-27T14:34:59.482Z,27.40
2023-04-27T14:37:27.814Z,27.50
2023-04-27T14:39:56.035Z,27.60
2023-04-27T14:42:24.338Z,27.80
2023-04-27T14:44:54.101Z,27.90
2023-04-27T14:47:22.473Z,27.90
2023-04-27T14:49:51.093Z,28.00
2023-04-27T14:52:19.362Z,28.10
2023-04-27T14:54:47.561Z,28.10
2023-04-27T14:57:15.753Z,28.10
2023-04-27T14:59:44.383Z,28.20
2023-04-27T15:02:13.895Z,28.40
2023-04-27T15:04:42.123Z,28.60
2023-04-27T15:07:11.018Z,28.60
2023-04-27T15:09:39.231Z,28.50
2023-04-27T15:12:08.295Z,28.30
2023-04-27T15:14:36.974Z,28.10
2023-04-27T15:17:05.154Z,28.10
2023-04-27T15:19:34.704Z,27.90
2023-04-27T15:22:02.951Z,27.90
2023-04-27T15:24:31.243Z,27.80
2023-04-27T15:26:59.563Z,27.70
2023-04-27T15:29:27.816Z,27.50
2023-04-27T15:31:56.181Z,27.30
2023-04-27T15:34:24.541Z,27.30
2023-04-27T15:36:54.111Z,27.60
2023-04-27T15:39:22.401Z,27.60
2023-04-27T15:41:50.769Z,27.50
2023-04-27T15:44:18.982Z,27.60
2023-04-27T15:46:47.305Z,27.40
2023-04-27T15:49:16.219Z,27.40
2023-04-27T15:51:44.672Z,27.60
2023-04-27T15:54:14.382Z,27.80
2023-04-27T15:56:42.953Z,27.80
2023-04-27T15:59:12.191Z,28.10
2023-04-27T16:01:40.844Z,28.20
2023-04-27T16:04:09.291Z,27.90
2023-04-27T16:06:38.550Z,27.70
2023-04-27T16:09:10.444Z,27.70
2023-04-27T16:11:42.568Z,27.80
2023-04-27T16:14:10.861Z,27.90
2023-04-27T16:16:41.194Z,27.90
2023-04-27T16:19:10.142Z,27.80
2023-04-27T16:21:38.299Z,28.00
2023-04-27T16:24:07.002Z,28.20
2023-04-27T16:26:42.824Z,28.40
2023-04-27T16:29:12.684Z,28.30
2023-04-27T16:31:42.558Z,28.40
2023-04-27T16:34:10.945Z,28.70
2023-04-27T16:36:39.131Z,29.00
2023-04-27T16:39:07.413Z,29.20
2023-04-27T16:41:35.741Z,29.30
2023-04-27T16:44:04.314Z,29.20
2023-04-27T16:46:36.204Z,29.30
2023-04-27T16:49:05.067Z,29.40
2023-04-27T16:51:33.749Z,29.50
2023-04-27T16:54:02.668Z,29.60
2023-04-27T16:56:37.578Z,29.60
2023-04-27T16:59:06.161Z,29.50
2023-04-27T17:01:36.111Z,29.70
2023-04-27T17:04:04.897Z,30.00
2023-04-27T17:06:33.203Z,30.10
2023-04-27T17:09:01.842Z,30.10
2023-04-27T17:11:33.241Z,30.10
2023-04-27T17:14:04.243Z,30.20
2023-04-27T17:16:34.668Z,30.30
2023-04-27T17:19:03.743Z,30.40
2023-04-27T17:21:32.380Z,30.40
2023-04-27T17:24:00.638Z,30.50
2023-04-27T17:26:49.987Z,30.60
2023-04-27T17:29:18.233Z,31.00
2023-04-27T17:31:47.987Z,31.20
2023-04-27T17:34:19.149Z,31.60
2023-04-27T17:36:47.466Z,31.40
2023-04-27T17:39:15.991Z,31.00
2023-04-27T17:41:44.348Z,31.10
2023-04-27T17:44:12.963Z,31.20
2023-04-27T17:46:48.079Z,31.40
2023-04-27T17:49:16.886Z,31.40
2023-04-27T17:51:46.528Z,31.40
2023-04-27T17:54:15.006Z,31.50
2023-04-27T17:56:43.424Z,31.70
2023-04-27T17:59:11.664Z,31.80
2023-04-27T18:01:39.865Z,32.10
2023-04-27T18:04:10.070Z,32.50
2023-04-27T18:06:38.460Z,32.80
2023-04-27T18:09:06.831Z,33.00
2023-04-27T18:11:39.507Z,33.30
2023-04-27T18:14:08.040Z,33.60
2023-04-27T18:16:36.456Z,33.90
2023-04-27T18:19:04.748Z,33.70
2023-04-27T18:21:34.625Z,33.60
2023-04-27T18:24:03.049Z,34.40
2023-04-27T18:26:31.806Z,34.00
2023-04-27T18:29:00.128Z,34.20
2023-04-27T18:31:28.593Z,34.30
2023-04-27T18:33:57.081Z,34.40
2023-04-27T18:36:27.661Z,34.40
2023-04-27T18:38:59.601Z,34.70
2023-04-27T18:41:29.265Z,35.00
2023-04-27T18:44:04.799Z,35.10
2023-04-27T18:46:33.214Z,35.40
2023-04-27T18:49:02.214Z,35.50
2023-04-27T18:51:32.200Z,35.40
2023-04-27T18:54:02.123Z,35.60
2023-04-27T18:56:31.178Z,35.90
2023-04-27T18:59:00.989Z,35.90
2023-04-27T19:01:31.063Z,36.00
2023-04-27T19:03:59.907Z,36.20
2023-04-27T19:06:28.402Z,36.20
2023-04-27T19:08:56.984Z,36.30
2023-04-27T19:11:26.992Z,37.10
2023-04-27T19:13:55.426Z,36.50
2023-04-27T19:16:25.125Z,36.80
2023-04-27T19:18:53.411Z,37.10
2023-04-27T19:21:21.660Z,37.10
2023-04-27T19:23:50.264Z,37.20
2023-04-27T19:26:18.520Z,37.20
2023-04-27T19:28:48.323Z,37.30
2023-04-27T19:31:16.627Z,37.40
2023-04-27T19:33:54.681Z,37.80
2023-04-27T19:36:23.567Z,37.80
2023-04-27T19:38:51.856Z,37.80
2023-04-27T19:41:20.772Z,38.10
2023-04-27T19:43:50.583Z,38.70
2023-04-27T19:46:18.906Z,38.00
2023-04-27T19:48:47.417Z,38.10
2023-04-27T19:51:15.660Z,38.10
2023-04-27T19:53:44.128Z,38.10
2023-04-27T19:56:12.336Z,38.10
2023-04-27T19:58:40.543Z,38.10
2023-04-27T20:01:12.277Z,38.20
2023-04-27T20:03:41.674Z,38.20
2023-04-27T20:06:10.413Z,38.00
2023-04-27T20:08:38.842Z,37.90
2023-04-27T20:11:06.954Z,37.90
2023-04-27T20:13:35.126Z,38.10
2023-04-27T20:16:04.948Z,38.30
2023-04-27T20:18:34.991Z,38.30
2023-04-27T20:21:03.517Z,38.30
2023-04-27T20:23:31.688Z,38.50
2023-04-27T20:25:59.889Z,38.80
2023-04-27T20:28:30.265Z,38.80
2023-04-27T20:30:58.765Z,38.70
2023-04-27T20:33:26.972Z,38.80
2023-04-27T20:36:03.493Z,38.70
2023-04-27T20:38:38.686Z,38.80
2023-04-27T20:41:08.617Z,38.80
2023-04-27T20:43:38.946Z,38.90
2023-04-27T20:46:07.900Z,39.00
2023-04-27T20:48:36.212Z,39.30
2023-04-27T20:51:06.306Z,39.60
2023-04-27T20:53:34.554Z,39.60
2023-04-27T20:56:02.962Z,40.30
2023-04-27T20:58:31.369Z,39.60
2023-04-27T21:00:59.729Z,39.80
2023-04-27T21:03:28.350Z,40.10
2023-04-27T21:05:56.667Z,40.00
2023-04-27T21:08:27.856Z,40.00
2023-04-27T21:10:57.179Z,40.10
2023-04-27T21:13:25.482Z,40.00
2023-04-27T21:15:54.166Z,39.90
2023-04-27T21:18:29.660Z,40.10
2023-04-27T21:20:59.147Z,40.20
2023-04-27T21:23:29.257Z,40.60
2023-04-27T21:25:57.456Z,40.60
2023-04-27T21:28:26.876Z,40.60
2023-04-27T21:30:55.255Z,40.50
2023-04-27T21:33:23.599Z,40.40
2023-04-27T21:35:51.791Z,40.40
2023-04-27T21:38:20.119Z,40.30
2023-04-27T21:40:49.654Z,40.40
2023-04-27T21:43:17.909Z,40.30
2023-04-27T21:45:46.524Z,40.30
2023-04-27T21:48:14.804Z,40.50
2023-04-27T21:50:43.157Z,40.50
2023-04-27T21:53:11.593Z,40.60
2023-04-27T21:55:40.062Z,40.70
2023-04-27T21:58:09.670Z,40.80
2023-04-27T22:00:37.901Z,40.90
2023-04-27T22:03:43.681Z,41.00
2023-04-27T22:06:12.476Z,41.30
2023-04-27T22:08:41.107Z,41.30
2023-04-27T22:11:09.344Z,41.50
2023-04-27T22:13:38.968Z,41.60
2023-04-27T22:16:07.417Z,41.70
2023-04-27T22:18:35.840Z,41.80
2023-04-27T22:21:04.055Z,41.80
2023-04-27T22:23:32.279Z,41.80
2023-04-27T22:26:00.497Z,41.90
2023-04-27T22:28:28.656Z,42.00
2023-04-27T22:30:58.540Z,42.10
2023-04-27T22:33:26.810Z,42.20
2023-04-27T22:35:55.114Z,42.40
2023-04-27T22:38:23.443Z,42.50
2023-04-27T22:40:51.732Z,42.50
2023-04-27T22:43:20.144Z,42.60
2023-04-27T22:45:48.340Z,42.70
2023-04-27T22:48:17.903Z,42.90
2023-04-27T22:50:46.239Z,43.10
2023-04-27T22:53:14.925Z,43.10
2023-04-27T22:55:43.536Z,43.20
2023-04-27T22:58:11.676Z,43.30
2023-04-27T23:00:40.316Z,43.40
2023-04-27T23:03:08.739Z,43.60
2023-04-27T23:05:38.324Z,43.70
2023-04-27T23:08:06.685Z,43.70
2023-04-27T23:10:38.678Z,43.80
2023-04-27T23:13:11.231Z,43.80
2023-04-27T23:15:40.321Z,43.90
2023-04-27T23:18:08.541Z,43.90
2023-04-27T23:20:38.045Z,44.50
2023-04-27T23:23:06.327Z,44.20
2023-04-27T23:25:34.536Z,44.30
2023-04-27T23:28:02.895Z,44.30
2023-04-27T23:30:32.444Z,44.50
2023-04-27T23:33:00.664Z,44.80
2023-04-27T23:35:29.683Z,45.00
2023-04-27T23:37:59.613Z,45.30
2023-04-27T23:40:27.924Z,45.50
2023-04-27T23:42:56.473Z,45.60
2023-04-27T23:45:24.681Z,45.80
2023-04-27T23:47:52.960Z,45.90
2023-04-27T23:50:21.450Z,45.90
2023-04-27T23:52:49.650Z,46.10
2023-04-27T23:55:19.636Z,46.20
2023-04-27T23:57:47.882Z,46.30
